Burns, TN (37029)

7:44 AM CDT on August 05, 2015 (GMT -0500)
Tidwell Weather Station-- Intersection Hwy 47 and Hwy 96, Burns/Dickson | | Change Station
CLOSE
Current Station
Personal Weather Station
Location: Burns, TN
Elevation: 783 ft
Nearby Weather Stations

Elev 783 ft 36.05 °N, 87.30 °W | Updated 8 seconds ago

Partly Cloudy
Partly Cloudy
74.8 °F
Feels Like 75 °F
N
0.0
Wind Variable Wind from SE
Gusts 0.0 mph

Today
High -- | Low -- °F
--% Chance of Precip.
Yesterday
High -- | Low -- °F
Precip. -- in
5:59 AM 7:50 PM
Waning Gibbous, 67% visible
Pressure 30.00 in
Visibility 6.0 miles
Clouds Few 2500 ft
Scattered Clouds 20000 ft
Scattered Clouds 25000 ft
Heat Index 75 °F
Dew Point 69 °F
Humidity 83%
Rainfall 0.00 in
Snow Depth Not available.
UV 0 out of 12
Pollen 4.50 out of 12
Air Quality Not available.
Flu Activity Not available.
METAR KBNA 051153Z 09003KT 6SM HZ FEW025 SCT200 SCT250 25/22 A3002 RMK AO2 SLP158 T02500217 10267 20239 53006

More Conditions Fewer Conditions

Pressure 30.00 in
Visibility 6.0 miles
Clouds Few 2500 ft
Scattered Clouds 20000 ft
Scattered Clouds 25000 ft
Heat Index 75 °F
Dew Point 69 °F
Humidity 83%
Rainfall 0.00 in
Snow Depth Not available.
UV 0 out of 12
Pollen 4.50 out of 12
Air Quality Not available.
Flu Activity Not available.
METAR KBNA 051153Z 09003KT 6SM HZ FEW025 SCT200 SCT250 25/22 A3002 RMK AO2 SLP158 T02500217 10267 20239 53006

More Conditions Fewer Conditions

10-Day Weather Forecast

×

Almanac

Astronomy

Aug. 05, 2015 Rise Set
Actual Time
Civil Twilight
Nautical Twilight
Astronomical Twilight
Moon
Length of Visible Light
Length of Day
Tomorrow will be .
, % of the Moon is Illuminated

Today's Extremes

State Highs State Lows

Community

WunderPhotos

Upload Photos

1,844,175 photos uploaded!

WunderBlogs® & News

Nearby

Air Quality

  Air Quality AQ Index Pollutant
Not available.

Snow Depth

Station Depth Elevation

Earthquake Activity

City Distance Mag. Time & Date
Minimum magnitude displayed is 2.5.

Coastal Water Temperatures

Place Temperature

Stations

Nearby Weather Stations

Station Location Temp. Windchill Dew Point Humidity Wind Precip. Elev Updated Type